sensor_id;sensor_type;location;lat;lon;timestamp;P1;durP1;ratioP1;P2;durP2;ratioP2
47966;SDS011;33733;52.456;13.620;2022-10-31T00:00:28;6.35;;;3.55;;
47966;SDS011;33733;52.456;13.620;2022-10-31T00:02:55;7.47;;;4.13;;
47966;SDS011;33733;52.456;13.620;2022-10-31T00:05:21;7.95;;;4.10;;
47966;SDS011;33733;52.456;13.620;2022-10-31T00:07:51;7.85;;;4.53;;
47966;SDS011;33733;52.456;13.620;2022-10-31T00:10:18;6.82;;;2.53;;
47966;SDS011;33733;52.456;13.620;2022-10-31T00:12:44;6.45;;;2.85;;
47966;SDS011;33733;52.456;13.620;2022-10-31T00:15:11;8.15;;;2.72;;
47966;SDS011;33733;52.456;13.620;2022-10-31T00:17:37;7.47;;;2.60;;
47966;SDS011;33733;52.456;13.620;2022-10-31T00:20:04;6.72;;;2.70;;
47966;SDS011;33733;52.456;13.620;2022-10-31T00:22:31;7.80;;;4.10;;
47966;SDS011;33733;52.456;13.620;2022-10-31T00:24:57;7.72;;;3.03;;
47966;SDS011;33733;52.456;13.620;2022-10-31T00:27:24;7.15;;;3.05;;
47966;SDS011;33733;52.456;13.620;2022-10-31T00:29:53;9.40;;;4.32;;
47966;SDS011;33733;52.456;13.620;2022-10-31T00:32:20;8.90;;;3.13;;
47966;SDS011;33733;52.456;13.620;2022-10-31T00:34:47;7.63;;;2.90;;
47966;SDS011;33733;52.456;13.620;2022-10-31T00:37:13;7.90;;;3.13;;
47966;SDS011;33733;52.456;13.620;2022-10-31T00:39:41;7.85;;;4.60;;
47966;SDS011;33733;52.456;13.620;2022-10-31T00:42:08;6.53;;;3.78;;
47966;SDS011;33733;52.456;13.620;2022-10-31T00:44:34;6.85;;;2.80;;
47966;SDS011;33733;52.456;13.620;2022-10-31T00:47:01;7.93;;;4.18;;
47966;SDS011;33733;52.456;13.620;2022-10-31T00:49:27;7.97;;;3.08;;
47966;SDS011;33733;52.456;13.620;2022-10-31T00:51:54;7.15;;;2.30;;
47966;SDS011;33733;52.456;13.620;2022-10-31T00:54:21;5.68;;;2.13;;
47966;SDS011;33733;52.456;13.620;2022-10-31T00:56:48;7.32;;;4.13;;
47966;SDS011;33733;52.456;13.620;2022-10-31T00:59:14;7.53;;;3.65;;
47966;SDS011;33733;52.456;13.620;2022-10-31T01:01:41;6.70;;;3.17;;
47966;SDS011;33733;52.456;13.620;2022-10-31T01:04:07;6.35;;;2.33;;
47966;SDS011;33733;52.456;13.620;2022-10-31T01:06:34;6.80;;;4.13;;
47966;SDS011;33733;52.456;13.620;2022-10-31T01:09:00;6.32;;;2.63;;
47966;SDS011;33733;52.456;13.620;2022-10-31T01:11:27;9.63;;;2.50;;
47966;SDS011;33733;52.456;13.620;2022-10-31T01:13:53;8.38;;;3.17;;
47966;SDS011;33733;52.456;13.620;2022-10-31T01:16:22;8.70;;;3.35;;
47966;SDS011;33733;52.456;13.620;2022-10-31T01:18:50;7.00;;;2.83;;
47966;SDS011;33733;52.456;13.620;2022-10-31T01:21:19;6.82;;;2.83;;
47966;SDS011;33733;52.456;13.620;2022-10-31T01:23:50;6.78;;;2.60;;
47966;SDS011;33733;52.456;13.620;2022-10-31T01:26:23;7.95;;;3.13;;
47966;SDS011;33733;52.456;13.620;2022-10-31T01:28:53;6.65;;;3.50;;
47966;SDS011;33733;52.456;13.620;2022-10-31T01:31:22;7.43;;;3.03;;
47966;SDS011;33733;52.456;13.620;2022-10-31T01:33:49;9.05;;;2.80;;
47966;SDS011;33733;52.456;13.620;2022-10-31T01:38:53;7.72;;;2.95;;
47966;SDS011;33733;52.456;13.620;2022-10-31T01:41:22;7.10;;;2.67;;
47966;SDS011;33733;52.456;13.620;2022-10-31T01:43:52;7.78;;;3.65;;
47966;SDS011;33733;52.456;13.620;2022-10-31T01:46:22;7.03;;;2.45;;
47966;SDS011;33733;52.456;13.620;2022-10-31T01:48:49;9.18;;;3.97;;
47966;SDS011;33733;52.456;13.620;2022-10-31T01:51:17;8.60;;;2.50;;
47966;SDS011;33733;52.456;13.620;2022-10-31T01:53:45;7.05;;;2.38;;
47966;SDS011;33733;52.456;13.620;2022-10-31T01:56:13;6.70;;;3.50;;
47966;SDS011;33733;52.456;13.620;2022-10-31T01:58:41;8.05;;;3.20;;
47966;SDS011;33733;52.456;13.620;2022-10-31T02:01:08;8.68;;;4.28;;
47966;SDS011;33733;52.456;13.620;2022-10-31T02:03:36;6.35;;;2.72;;
47966;SDS011;33733;52.456;13.620;2022-10-31T02:06:02;11.52;;;2.88;;
47966;SDS011;33733;52.456;13.620;2022-10-31T02:08:30;6.07;;;2.78;;
47966;SDS011;33733;52.456;13.620;2022-10-31T02:10:58;8.32;;;2.95;;
47966;SDS011;33733;52.456;13.620;2022-10-31T02:13:24;5.78;;;2.65;;
47966;SDS011;33733;52.456;13.620;2022-10-31T02:15:52;7.15;;;3.80;;
47966;SDS011;33733;52.456;13.620;2022-10-31T02:18:21;9.25;;;4.07;;
47966;SDS011;33733;52.456;13.620;2022-10-31T02:20:55;6.28;;;2.75;;
47966;SDS011;33733;52.456;13.620;2022-10-31T02:29:10;5.85;;;2.58;;
47966;SDS011;33733;52.456;13.620;2022-10-31T02:32:04;9.85;;;5.22;;
47966;SDS011;33733;52.456;13.620;2022-10-31T02:34:58;8.48;;;3.50;;
47966;SDS011;33733;52.456;13.620;2022-10-31T02:49:19;6.85;;;2.90;;
47966;SDS011;33733;52.456;13.620;2022-10-31T02:51:50;7.65;;;2.97;;
47966;SDS011;33733;52.456;13.620;2022-10-31T02:54:18;10.07;;;4.78;;
47966;SDS011;33733;52.456;13.620;2022-10-31T02:56:54;10.70;;;3.88;;
47966;SDS011;33733;52.456;13.620;2022-10-31T02:59:26;7.80;;;3.10;;
47966;SDS011;33733;52.456;13.620;2022-10-31T03:07:23;8.70;;;3.80;;
47966;SDS011;33733;52.456;13.620;2022-10-31T03:10:01;9.88;;;2.85;;
47966;SDS011;33733;52.456;13.620;2022-10-31T03:12:40;6.75;;;3.90;;
47966;SDS011;33733;52.456;13.620;2022-10-31T03:18:00;7.20;;;3.03;;
47966;SDS011;33733;52.456;13.620;2022-10-31T03:20:34;7.55;;;2.60;;
47966;SDS011;33733;52.456;13.620;2022-10-31T03:23:04;7.35;;;2.65;;
47966;SDS011;33733;52.456;13.620;2022-10-31T03:25:33;12.18;;;5.07;;
47966;SDS011;33733;52.456;13.620;2022-10-31T03:28:00;9.48;;;4.47;;
47966;SDS011;33733;52.456;13.620;2022-10-31T03:30:31;7.55;;;4.07;;
47966;SDS011;33733;52.456;13.620;2022-10-31T03:32:59;9.98;;;4.43;;
47966;SDS011;33733;52.456;13.620;2022-10-31T03:35:30;7.90;;;3.10;;
47966;SDS011;33733;52.456;13.620;2022-10-31T03:38:01;7.93;;;4.00;;
47966;SDS011;33733;52.456;13.620;2022-10-31T03:40:32;9.23;;;2.90;;
47966;SDS011;33733;52.456;13.620;2022-10-31T03:43:00;8.45;;;3.28;;
47966;SDS011;33733;52.456;13.620;2022-10-31T03:45:31;8.32;;;3.17;;
47966;SDS011;33733;52.456;13.620;2022-10-31T03:47:58;7.85;;;3.05;;
47966;SDS011;33733;52.456;13.620;2022-10-31T03:50:28;8.60;;;3.67;;
47966;SDS011;33733;52.456;13.620;2022-10-31T03:53:41;6.60;;;2.95;;
47966;SDS011;33733;52.456;13.620;2022-10-31T03:56:22;7.65;;;3.13;;
47966;SDS011;33733;52.456;13.620;2022-10-31T04:01:34;9.88;;;3.97;;
47966;SDS011;33733;52.456;13.620;2022-10-31T04:04:04;8.25;;;4.65;;
47966;SDS011;33733;52.456;13.620;2022-10-31T04:06:31;9.50;;;3.63;;
47966;SDS011;33733;52.456;13.620;2022-10-31T04:09:01;8.40;;;4.68;;
47966;SDS011;33733;52.456;13.620;2022-10-31T04:11:30;7.93;;;3.92;;
47966;SDS011;33733;52.456;13.620;2022-10-31T04:14:19;8.30;;;4.22;;
47966;SDS011;33733;52.456;13.620;2022-10-31T04:16:47;7.32;;;3.15;;
47966;SDS011;33733;52.456;13.620;2022-10-31T04:19:14;7.55;;;2.97;;
47966;SDS011;33733;52.456;13.620;2022-10-31T04:21:41;8.48;;;5.15;;
47966;SDS011;33733;52.456;13.620;2022-10-31T04:26:38;7.90;;;4.68;;
47966;SDS011;33733;52.456;13.620;2022-10-31T04:29:04;9.82;;;4.68;;
47966;SDS011;33733;52.456;13.620;2022-10-31T04:31:31;8.02;;;4.50;;
47966;SDS011;33733;52.456;13.620;2022-10-31T04:33:57;6.60;;;3.03;;
47966;SDS011;33733;52.456;13.620;2022-10-31T04:36:24;8.30;;;3.92;;
47966;SDS011;33733;52.456;13.620;2022-10-31T04:38:52;6.80;;;3.05;;
47966;SDS011;33733;52.456;13.620;2022-10-31T04:41:36;12.10;;;4.05;;
47966;SDS011;33733;52.456;13.620;2022-10-31T04:44:28;8.65;;;3.20;;
47966;SDS011;33733;52.456;13.620;2022-10-31T04:46:59;7.22;;;4.00;;
47966;SDS011;33733;52.456;13.620;2022-10-31T04:49:25;8.63;;;2.75;;
47966;SDS011;33733;52.456;13.620;2022-10-31T04:51:52;8.30;;;4.75;;
47966;SDS011;33733;52.456;13.620;2022-10-31T04:54:18;8.18;;;4.03;;
47966;SDS011;33733;52.456;13.620;2022-10-31T04:57:07;7.90;;;4.35;;
47966;SDS011;33733;52.456;13.620;2022-10-31T04:59:34;6.38;;;2.65;;
47966;SDS011;33733;52.456;13.620;2022-10-31T05:02:02;6.57;;;2.08;;
47966;SDS011;33733;52.456;13.620;2022-10-31T05:04:42;10.82;;;3.47;;
47966;SDS011;33733;52.456;13.620;2022-10-31T05:07:08;8.40;;;3.78;;
47966;SDS011;33733;52.456;13.620;2022-10-31T05:09:35;7.68;;;2.72;;
47966;SDS011;33733;52.456;13.620;2022-10-31T05:12:02;7.70;;;4.10;;
47966;SDS011;33733;52.456;13.620;2022-10-31T05:14:47;6.10;;;2.20;;
47966;SDS011;33733;52.456;13.620;2022-10-31T05:17:32;7.25;;;2.17;;
47966;SDS011;33733;52.456;13.620;2022-10-31T05:20:17;8.20;;;3.58;;
47966;SDS011;33733;52.456;13.620;2022-10-31T05:23:03;6.72;;;3.40;;
47966;SDS011;33733;52.456;13.620;2022-10-31T05:25:30;13.10;;;5.63;;
47966;SDS011;33733;52.456;13.620;2022-10-31T05:28:00;11.82;;;5.15;;
47966;SDS011;33733;52.456;13.620;2022-10-31T05:30:28;10.15;;;6.03;;
47966;SDS011;33733;52.456;13.620;2022-10-31T05:35:47;11.07;;;6.00;;
47966;SDS011;33733;52.456;13.620;2022-10-31T05:38:27;9.82;;;3.35;;
47966;SDS011;33733;52.456;13.620;2022-10-31T05:40:57;7.18;;;3.50;;
47966;SDS011;33733;52.456;13.620;2022-10-31T05:43:26;10.13;;;3.05;;
47966;SDS011;33733;52.456;13.620;2022-10-31T05:45:54;10.68;;;4.70;;
47966;SDS011;33733;52.456;13.620;2022-10-31T05:48:41;7.45;;;2.75;;
47966;SDS011;33733;52.456;13.620;2022-10-31T05:51:26;6.78;;;2.60;;
47966;SDS011;33733;52.456;13.620;2022-10-31T05:53:53;8.63;;;3.50;;
47966;SDS011;33733;52.456;13.620;2022-10-31T05:56:21;6.75;;;3.10;;
47966;SDS011;33733;52.456;13.620;2022-10-31T05:58:48;9.23;;;3.25;;
47966;SDS011;33733;52.456;13.620;2022-10-31T06:01:14;6.68;;;2.75;;
47966;SDS011;33733;52.456;13.620;2022-10-31T06:03:43;8.05;;;4.38;;
47966;SDS011;33733;52.456;13.620;2022-10-31T06:06:14;7.45;;;2.50;;
47966;SDS011;33733;52.456;13.620;2022-10-31T06:08:40;8.60;;;3.70;;
47966;SDS011;33733;52.456;13.620;2022-10-31T06:11:13;7.60;;;2.83;;
47966;SDS011;33733;52.456;13.620;2022-10-31T06:14:17;7.32;;;2.42;;
47966;SDS011;33733;52.456;13.620;2022-10-31T06:16:56;8.50;;;2.85;;
47966;SDS011;33733;52.456;13.620;2022-10-31T06:19:41;11.48;;;3.97;;
47966;SDS011;33733;52.456;13.620;2022-10-31T06:22:10;7.95;;;4.35;;
47966;SDS011;33733;52.456;13.620;2022-10-31T06:24:37;7.68;;;2.50;;
47966;SDS011;33733;52.456;13.620;2022-10-31T06:27:30;8.75;;;4.47;;
47966;SDS011;33733;52.456;13.620;2022-10-31T06:30:03;7.30;;;3.25;;
47966;SDS011;33733;52.456;13.620;2022-10-31T06:32:33;5.95;;;2.30;;
47966;SDS011;33733;52.456;13.620;2022-10-31T06:34:59;8.02;;;2.63;;
47966;SDS011;33733;52.456;13.620;2022-10-31T06:37:26;7.47;;;3.03;;
47966;SDS011;33733;52.456;13.620;2022-10-31T06:39:59;7.00;;;2.67;;
47966;SDS011;33733;52.456;13.620;2022-10-31T06:42:26;6.95;;;2.65;;
47966;SDS011;33733;52.456;13.620;2022-10-31T06:44:52;6.82;;;2.67;;
47966;SDS011;33733;52.456;13.620;2022-10-31T06:47:57;7.15;;;3.65;;
47966;SDS011;33733;52.456;13.620;2022-10-31T06:51:16;6.93;;;3.63;;
47966;SDS011;33733;52.456;13.620;2022-10-31T06:53:43;9.30;;;2.35;;
47966;SDS011;33733;52.456;13.620;2022-10-31T06:56:11;10.63;;;3.20;;
47966;SDS011;33733;52.456;13.620;2022-10-31T06:58:43;11.20;;;5.22;;
47966;SDS011;33733;52.456;13.620;2022-10-31T07:01:12;15.98;;;4.55;;
47966;SDS011;33733;52.456;13.620;2022-10-31T07:03:38;16.13;;;4.57;;
47966;SDS011;33733;52.456;13.620;2022-10-31T07:06:06;10.25;;;4.03;;
47966;SDS011;33733;52.456;13.620;2022-10-31T07:08:33;16.58;;;4.50;;
47966;SDS011;33733;52.456;13.620;2022-10-31T07:11:00;11.10;;;5.88;;
47966;SDS011;33733;52.456;13.620;2022-10-31T07:13:28;11.38;;;4.32;;
47966;SDS011;33733;52.456;13.620;2022-10-31T07:16:05;10.73;;;4.65;;
47966;SDS011;33733;52.456;13.620;2022-10-31T07:21:01;11.55;;;5.35;;
47966;SDS011;33733;52.456;13.620;2022-10-31T07:23:27;14.55;;;3.28;;
47966;SDS011;33733;52.456;13.620;2022-10-31T07:26:14;8.48;;;3.58;;
47966;SDS011;33733;52.456;13.620;2022-10-31T07:28:46;9.13;;;2.72;;
47966;SDS011;33733;52.456;13.620;2022-10-31T07:31:16;10.00;;;4.53;;
47966;SDS011;33733;52.456;13.620;2022-10-31T07:33:42;10.43;;;4.35;;
47966;SDS011;33733;52.456;13.620;2022-10-31T07:36:24;7.53;;;3.10;;
47966;SDS011;33733;52.456;13.620;2022-10-31T07:38:52;9.13;;;4.93;;
47966;SDS011;33733;52.456;13.620;2022-10-31T07:41:19;9.50;;;3.05;;
47966;SDS011;33733;52.456;13.620;2022-10-31T07:43:47;9.10;;;4.90;;
47966;SDS011;33733;52.456;13.620;2022-10-31T07:46:16;11.32;;;3.85;;
47966;SDS011;33733;52.456;13.620;2022-10-31T07:49:01;9.63;;;3.85;;
47966;SDS011;33733;52.456;13.620;2022-10-31T07:51:54;8.40;;;3.50;;
47966;SDS011;33733;52.456;13.620;2022-10-31T07:54:47;10.32;;;4.80;;
47966;SDS011;33733;52.456;13.620;2022-10-31T07:57:21;8.80;;;3.92;;
47966;SDS011;33733;52.456;13.620;2022-10-31T07:59:51;9.43;;;5.10;;
47966;SDS011;33733;52.456;13.620;2022-10-31T08:02:17;9.70;;;4.25;;
47966;SDS011;33733;52.456;13.620;2022-10-31T08:04:47;9.35;;;3.88;;
47966;SDS011;33733;52.456;13.620;2022-10-31T08:07:35;9.63;;;3.92;;
47966;SDS011;33733;52.456;13.620;2022-10-31T08:10:05;9.18;;;5.22;;
47966;SDS011;33733;52.456;13.620;2022-10-31T08:12:33;8.25;;;4.57;;
47966;SDS011;33733;52.456;13.620;2022-10-31T08:15:00;7.90;;;3.35;;
47966;SDS011;33733;52.456;13.620;2022-10-31T08:17:26;9.05;;;3.40;;
47966;SDS011;33733;52.456;13.620;2022-10-31T08:19:58;10.18;;;4.80;;
47966;SDS011;33733;52.456;13.620;2022-10-31T08:22:32;10.60;;;3.10;;
47966;SDS011;33733;52.456;13.620;2022-10-31T08:25:00;9.13;;;4.70;;
47966;SDS011;33733;52.456;13.620;2022-10-31T08:27:27;8.80;;;3.72;;
47966;SDS011;33733;52.456;13.620;2022-10-31T08:29:57;11.98;;;6.18;;
47966;SDS011;33733;52.456;13.620;2022-10-31T08:32:24;10.63;;;3.97;;
47966;SDS011;33733;52.456;13.620;2022-10-31T08:34:51;12.80;;;5.28;;
47966;SDS011;33733;52.456;13.620;2022-10-31T08:37:36;11.07;;;5.70;;
47966;SDS011;33733;52.456;13.620;2022-10-31T08:40:04;9.07;;;3.97;;
47966;SDS011;33733;52.456;13.620;2022-10-31T08:42:33;10.77;;;4.38;;
47966;SDS011;33733;52.456;13.620;2022-10-31T08:45:00;9.77;;;4.68;;
47966;SDS011;33733;52.456;13.620;2022-10-31T08:47:29;11.20;;;6.30;;
47966;SDS011;33733;52.456;13.620;2022-10-31T08:49:55;14.50;;;6.00;;
47966;SDS011;33733;52.456;13.620;2022-10-31T08:52:23;10.50;;;4.85;;
47966;SDS011;33733;52.456;13.620;2022-10-31T08:55:10;8.95;;;3.85;;
47966;SDS011;33733;52.456;13.620;2022-10-31T08:57:56;10.70;;;4.78;;
47966;SDS011;33733;52.456;13.620;2022-10-31T09:00:33;9.73;;;4.40;;
47966;SDS011;33733;52.456;13.620;2022-10-31T09:03:16;11.32;;;5.72;;
47966;SDS011;33733;52.456;13.620;2022-10-31T09:05:56;11.00;;;5.43;;
47966;SDS011;33733;52.456;13.620;2022-10-31T09:08:26;8.27;;;4.00;;
47966;SDS011;33733;52.456;13.620;2022-10-31T09:10:56;14.60;;;5.63;;
47966;SDS011;33733;52.456;13.620;2022-10-31T09:13:55;12.10;;;6.40;;
47966;SDS011;33733;52.456;13.620;2022-10-31T09:16:37;11.32;;;4.72;;
47966;SDS011;33733;52.456;13.620;2022-10-31T09:19:07;13.05;;;5.75;;
47966;SDS011;33733;52.456;13.620;2022-10-31T09:21:36;12.13;;;5.63;;
47966;SDS011;33733;52.456;13.620;2022-10-31T09:24:03;14.68;;;6.10;;
47966;SDS011;33733;52.456;13.620;2022-10-31T09:26:30;15.55;;;6.32;;
47966;SDS011;33733;52.456;13.620;2022-10-31T09:29:09;11.30;;;6.18;;
47966;SDS011;33733;52.456;13.620;2022-10-31T09:31:37;10.95;;;4.90;;
47966;SDS011;33733;52.456;13.620;2022-10-31T09:34:29;10.18;;;5.25;;
47966;SDS011;33733;52.456;13.620;2022-10-31T09:37:02;12.15;;;6.18;;
47966;SDS011;33733;52.456;13.620;2022-10-31T09:39:28;10.10;;;5.30;;
47966;SDS011;33733;52.456;13.620;2022-10-31T09:42:12;13.70;;;4.78;;
47966;SDS011;33733;52.456;13.620;2022-10-31T09:50:34;13.02;;;5.15;;
47966;SDS011;33733;52.456;13.620;2022-10-31T09:53:25;11.60;;;5.22;;
47966;SDS011;33733;52.456;13.620;2022-10-31T09:55:58;12.40;;;5.18;;
47966;SDS011;33733;52.456;13.620;2022-10-31T09:58:27;12.25;;;6.75;;
47966;SDS011;33733;52.456;13.620;2022-10-31T10:00:56;15.35;;;6.50;;
47966;SDS011;33733;52.456;13.620;2022-10-31T10:03:36;12.90;;;7.03;;
47966;SDS011;33733;52.456;13.620;2022-10-31T10:06:31;14.38;;;7.70;;
47966;SDS011;33733;52.456;13.620;2022-10-31T10:09:31;14.63;;;7.22;;
47966;SDS011;33733;52.456;13.620;2022-10-31T10:12:19;13.40;;;6.22;;
47966;SDS011;33733;52.456;13.620;2022-10-31T10:18:18;13.70;;;7.45;;
47966;SDS011;33733;52.456;13.620;2022-10-31T10:25:57;13.27;;;5.93;;
47966;SDS011;33733;52.456;13.620;2022-10-31T10:28:37;13.40;;;6.78;;
47966;SDS011;33733;52.456;13.620;2022-10-31T10:31:12;14.90;;;8.43;;
47966;SDS011;33733;52.456;13.620;2022-10-31T10:33:58;14.60;;;6.22;;
47966;SDS011;33733;52.456;13.620;2022-10-31T10:39:20;13.77;;;6.75;;
47966;SDS011;33733;52.456;13.620;2022-10-31T10:41:50;12.90;;;5.63;;
47966;SDS011;33733;52.456;13.620;2022-10-31T10:44:37;13.07;;;5.43;;
47966;SDS011;33733;52.456;13.620;2022-10-31T10:47:25;15.57;;;6.78;;
47966;SDS011;33733;52.456;13.620;2022-10-31T10:50:32;11.48;;;6.25;;
47966;SDS011;33733;52.456;13.620;2022-10-31T10:55:35;15.20;;;6.97;;
47966;SDS011;33733;52.456;13.620;2022-10-31T11:00:39;11.73;;;6.07;;
47966;SDS011;33733;52.456;13.620;2022-10-31T11:03:07;12.43;;;6.25;;
47966;SDS011;33733;52.456;13.620;2022-10-31T11:05:36;12.38;;;5.07;;
47966;SDS011;33733;52.456;13.620;2022-10-31T11:08:25;14.65;;;5.57;;
47966;SDS011;33733;52.456;13.620;2022-10-31T11:13:53;15.68;;;6.00;;
47966;SDS011;33733;52.456;13.620;2022-10-31T11:18:53;12.50;;;5.75;;
47966;SDS011;33733;52.456;13.620;2022-10-31T11:21:27;10.68;;;5.32;;
47966;SDS011;33733;52.456;13.620;2022-10-31T11:24:02;10.13;;;4.97;;
47966;SDS011;33733;52.456;13.620;2022-10-31T11:26:35;12.65;;;4.95;;
47966;SDS011;33733;52.456;13.620;2022-10-31T11:29:10;13.52;;;4.93;;
47966;SDS011;33733;52.456;13.620;2022-10-31T11:31:40;14.68;;;6.55;;
47966;SDS011;33733;52.456;13.620;2022-10-31T11:37:25;15.43;;;6.93;;
47966;SDS011;33733;52.456;13.620;2022-10-31T11:39:55;13.70;;;6.05;;
47966;SDS011;33733;52.456;13.620;2022-10-31T11:44:50;13.52;;;6.55;;
47966;SDS011;33733;52.456;13.620;2022-10-31T11:47:19;13.85;;;6.07;;
47966;SDS011;33733;52.456;13.620;2022-10-31T11:49:49;11.02;;;5.35;;
47966;SDS011;33733;52.456;13.620;2022-10-31T11:52:26;16.58;;;6.82;;
47966;SDS011;33733;52.456;13.620;2022-10-31T11:54:55;13.23;;;7.97;;
47966;SDS011;33733;52.456;13.620;2022-10-31T11:57:30;13.05;;;5.95;;
47966;SDS011;33733;52.456;13.620;2022-10-31T11:59:59;13.77;;;8.73;;
47966;SDS011;33733;52.456;13.620;2022-10-31T12:02:26;14.77;;;7.50;;
47966;SDS011;33733;52.456;13.620;2022-10-31T12:05:02;15.00;;;6.03;;
47966;SDS011;33733;52.456;13.620;2022-10-31T12:07:37;11.73;;;5.28;;
47966;SDS011;33733;52.456;13.620;2022-10-31T12:10:10;11.43;;;7.03;;
47966;SDS011;33733;52.456;13.620;2022-10-31T12:12:47;14.15;;;8.57;;
47966;SDS011;33733;52.456;13.620;2022-10-31T12:18:22;14.90;;;5.97;;
47966;SDS011;33733;52.456;13.620;2022-10-31T12:23:49;14.50;;;6.80;;
47966;SDS011;33733;52.456;13.620;2022-10-31T12:40:28;14.98;;;7.95;;
47966;SDS011;33733;52.456;13.620;2022-10-31T12:43:46;11.95;;;6.88;;
47966;SDS011;33733;52.456;13.620;2022-10-31T12:46:24;12.32;;;7.03;;
47966;SDS011;33733;52.456;13.620;2022-10-31T13:00:05;12.75;;;6.25;;
47966;SDS011;33733;52.456;13.620;2022-10-31T13:02:43;14.68;;;6.57;;
47966;SDS011;33733;52.456;13.620;2022-10-31T13:07:57;12.60;;;6.97;;
47966;SDS011;33733;52.456;13.620;2022-10-31T13:10:26;12.82;;;7.32;;
47966;SDS011;33733;52.456;13.620;2022-10-31T13:13:02;14.55;;;6.00;;
47966;SDS011;33733;52.456;13.620;2022-10-31T13:15:45;15.70;;;6.82;;
47966;SDS011;33733;52.456;13.620;2022-10-31T13:22:31;12.18;;;7.07;;
47966;SDS011;33733;52.456;13.620;2022-10-31T13:30:16;14.77;;;5.78;;
47966;SDS011;33733;52.456;13.620;2022-10-31T13:32:52;15.15;;;5.95;;
47966;SDS011;33733;52.456;13.620;2022-10-31T13:40:54;12.25;;;6.72;;
47966;SDS011;33733;52.456;13.620;2022-10-31T13:45:58;11.15;;;5.78;;
47966;SDS011;33733;52.456;13.620;2022-10-31T13:50:55;10.60;;;5.32;;
47966;SDS011;33733;52.456;13.620;2022-10-31T13:53:34;16.15;;;7.05;;
47966;SDS011;33733;52.456;13.620;2022-10-31T13:56:17;11.48;;;6.63;;
47966;SDS011;33733;52.456;13.620;2022-10-31T13:59:32;12.38;;;5.32;;
47966;SDS011;33733;52.456;13.620;2022-10-31T14:01:33;13.00;;;5.93;;
47966;SDS011;33733;52.456;13.620;2022-10-31T14:04:07;13.52;;;6.28;;
47966;SDS011;33733;52.456;13.620;2022-10-31T14:09:26;12.73;;;7.88;;
47966;SDS011;33733;52.456;13.620;2022-10-31T14:11:58;11.02;;;5.40;;
47966;SDS011;33733;52.456;13.620;2022-10-31T14:14:31;11.63;;;7.75;;
47966;SDS011;33733;52.456;13.620;2022-10-31T14:17:00;12.13;;;6.68;;
47966;SDS011;33733;52.456;13.620;2022-10-31T14:19:27;12.60;;;5.22;;
47966;SDS011;33733;52.456;13.620;2022-10-31T14:21:53;14.48;;;6.45;;
47966;SDS011;33733;52.456;13.620;2022-10-31T14:29:29;16.23;;;8.20;;
47966;SDS011;33733;52.456;13.620;2022-10-31T14:37:32;11.48;;;5.97;;
47966;SDS011;33733;52.456;13.620;2022-10-31T14:51:20;11.85;;;5.90;;
47966;SDS011;33733;52.456;13.620;2022-10-31T14:53:51;13.98;;;6.28;;
47966;SDS011;33733;52.456;13.620;2022-10-31T14:58:56;16.27;;;6.93;;
47966;SDS011;33733;52.456;13.620;2022-10-31T15:01:26;11.38;;;5.03;;
47966;SDS011;33733;52.456;13.620;2022-10-31T15:03:57;14.00;;;6.32;;
47966;SDS011;33733;52.456;13.620;2022-10-31T15:06:47;11.88;;;5.97;;
47966;SDS011;33733;52.456;13.620;2022-10-31T15:09:21;12.52;;;6.93;;
47966;SDS011;33733;52.456;13.620;2022-10-31T15:11:52;9.88;;;4.22;;
47966;SDS011;33733;52.456;13.620;2022-10-31T15:14:26;11.20;;;4.22;;
47966;SDS011;33733;52.456;13.620;2022-10-31T15:16:55;11.73;;;3.95;;
47966;SDS011;33733;52.456;13.620;2022-10-31T15:19:24;12.18;;;5.70;;
47966;SDS011;33733;52.456;13.620;2022-10-31T15:21:53;11.43;;;4.13;;
47966;SDS011;33733;52.456;13.620;2022-10-31T15:24:20;9.95;;;4.97;;
47966;SDS011;33733;52.456;13.620;2022-10-31T15:26:51;14.80;;;7.15;;
47966;SDS011;33733;52.456;13.620;2022-10-31T15:29:22;10.45;;;4.43;;
47966;SDS011;33733;52.456;13.620;2022-10-31T15:31:50;10.82;;;5.78;;
47966;SDS011;33733;52.456;13.620;2022-10-31T15:34:22;12.73;;;4.78;;
47966;SDS011;33733;52.456;13.620;2022-10-31T15:36:54;9.75;;;4.60;;
47966;SDS011;33733;52.456;13.620;2022-10-31T15:39:20;8.57;;;3.55;;
47966;SDS011;33733;52.456;13.620;2022-10-31T15:41:48;9.65;;;4.25;;
47966;SDS011;33733;52.456;13.620;2022-10-31T15:44:24;9.60;;;3.42;;
47966;SDS011;33733;52.456;13.620;2022-10-31T15:49:40;11.52;;;4.88;;
47966;SDS011;33733;52.456;13.620;2022-10-31T15:52:13;8.70;;;3.40;;
47966;SDS011;33733;52.456;13.620;2022-10-31T15:54:44;9.57;;;3.72;;
47966;SDS011;33733;52.456;13.620;2022-10-31T15:57:13;11.65;;;5.80;;
47966;SDS011;33733;52.456;13.620;2022-10-31T15:59:40;7.15;;;3.38;;
47966;SDS011;33733;52.456;13.620;2022-10-31T16:02:10;10.27;;;4.10;;
47966;SDS011;33733;52.456;13.620;2022-10-31T16:04:37;12.10;;;5.47;;
47966;SDS011;33733;52.456;13.620;2022-10-31T16:07:15;10.52;;;4.10;;
47966;SDS011;33733;52.456;13.620;2022-10-31T16:09:49;9.05;;;3.60;;
47966;SDS011;33733;52.456;13.620;2022-10-31T16:12:17;9.77;;;4.10;;
47966;SDS011;33733;52.456;13.620;2022-10-31T16:14:48;9.73;;;5.25;;
47966;SDS011;33733;52.456;13.620;2022-10-31T16:17:16;10.48;;;5.50;;
47966;SDS011;33733;52.456;13.620;2022-10-31T16:19:52;11.02;;;4.72;;
47966;SDS011;33733;52.456;13.620;2022-10-31T16:22:26;11.63;;;4.22;;
47966;SDS011;33733;52.456;13.620;2022-10-31T16:25:08;11.48;;;6.00;;
47966;SDS011;33733;52.456;13.620;2022-10-31T16:27:36;10.00;;;5.47;;
47966;SDS011;33733;52.456;13.620;2022-10-31T16:30:50;12.55;;;4.85;;
47966;SDS011;33733;52.456;13.620;2022-10-31T16:32:56;10.52;;;3.88;;
47966;SDS011;33733;52.456;13.620;2022-10-31T16:35:32;11.48;;;4.45;;
47966;SDS011;33733;52.456;13.620;2022-10-31T16:38:01;11.43;;;5.85;;
47966;SDS011;33733;52.456;13.620;2022-10-31T16:40:27;11.07;;;6.18;;
47966;SDS011;33733;52.456;13.620;2022-10-31T16:42:55;13.25;;;4.40;;
47966;SDS011;33733;52.456;13.620;2022-10-31T16:45:24;12.60;;;5.68;;
47966;SDS011;33733;52.456;13.620;2022-10-31T16:50:20;8.68;;;4.10;;
47966;SDS011;33733;52.456;13.620;2022-10-31T16:52:48;8.23;;;3.53;;
47966;SDS011;33733;52.456;13.620;2022-10-31T16:55:36;9.98;;;3.30;;
47966;SDS011;33733;52.456;13.620;2022-10-31T16:58:28;8.70;;;3.28;;
47966;SDS011;33733;52.456;13.620;2022-10-31T17:00:55;12.40;;;6.18;;
47966;SDS011;33733;52.456;13.620;2022-10-31T17:03:22;12.23;;;4.82;;
47966;SDS011;33733;52.456;13.620;2022-10-31T17:05:49;12.13;;;6.70;;
47966;SDS011;33733;52.456;13.620;2022-10-31T17:08:16;13.50;;;6.82;;
47966;SDS011;33733;52.456;13.620;2022-10-31T17:10:42;10.75;;;6.03;;
47966;SDS011;33733;52.456;13.620;2022-10-31T17:13:11;9.52;;;4.50;;
47966;SDS011;33733;52.456;13.620;2022-10-31T17:15:44;10.45;;;4.30;;
47966;SDS011;33733;52.456;13.620;2022-10-31T17:18:13;11.30;;;6.72;;
47966;SDS011;33733;52.456;13.620;2022-10-31T17:20:40;9.30;;;4.72;;
47966;SDS011;33733;52.456;13.620;2022-10-31T17:23:10;10.63;;;5.03;;
47966;SDS011;33733;52.456;13.620;2022-10-31T17:25:38;11.45;;;5.72;;
47966;SDS011;33733;52.456;13.620;2022-10-31T17:28:05;10.52;;;3.95;;
47966;SDS011;33733;52.456;13.620;2022-10-31T17:30:32;8.93;;;4.20;;
47966;SDS011;33733;52.456;13.620;2022-10-31T17:32:58;9.98;;;4.20;;
47966;SDS011;33733;52.456;13.620;2022-10-31T17:35:26;9.98;;;4.72;;
47966;SDS011;33733;52.456;13.620;2022-10-31T17:37:52;9.13;;;4.32;;